Terminal Aerodrome Forecast
Issued by NWS North Platte, NE

Home | Current Version | Previous Version | Graphics & Text | Print | Product List | Glossary On
Versions: 1 2 3 4 5 6 7 8 9 10 11 12 13 14 15 16 17 18 19 20 21
000
FTUS43 KLBF 252337
TAFVTN
TAF
KVTN 252337Z 2600/2624 01008KT P6SM SCT250
     FM261100 06012KT P6SM VCTS OVC025CB
     FM261500 06011KT P6SM OVC015
     FM262000 05012KT P6SM OVC007=

USA.gov is the U.S. government's official web portal to all federal, state and local government web resources and services.